createdAt,value
2019-05-02T00:00:16.018Z,75.78
2019-05-02T00:01:35.438Z,83.82
2019-05-02T00:02:41.293Z,79.03
2019-05-02T00:03:47.023Z,78.02
2019-05-02T00:04:55.843Z,82.80
2019-05-02T00:06:03.041Z,82.57
2019-05-02T00:07:07.930Z,75.83
2019-05-02T00:08:12.813Z,80.55
2019-05-02T00:09:17.831Z,76.30
2019-05-02T00:10:24.865Z,80.05
2019-05-02T00:11:30.771Z,78.28
2019-05-02T00:12:35.939Z,80.30
2019-05-02T00:13:40.639Z,78.17
2019-05-02T00:14:47.030Z,81.30
2019-05-02T00:15:52.790Z,77.97
2019-05-02T00:16:57.749Z,81.60
2019-05-02T00:18:02.845Z,78.17
2019-05-02T00:19:09.039Z,82.25
2019-05-02T00:20:15.768Z,79.42
2019-05-02T00:21:20.969Z,82.92
2019-05-02T00:22:26.554Z,79.50
2019-05-02T00:23:31.592Z,81.08
2019-05-02T00:24:39.233Z,81.92
2019-05-02T00:25:47.198Z,80.83
2019-05-02T00:26:50.521Z,82.17
2019-05-02T00:27:55.550Z,78.80
2019-05-02T00:29:00.341Z,78.62
2019-05-02T00:30:06.143Z,84.87
2019-05-02T00:31:11.520Z,82.78
2019-05-02T00:32:18.372Z,80.95
2019-05-02T00:33:24.149Z,83.80
2019-05-02T00:34:29.448Z,81.00
2019-05-02T00:35:34.442Z,84.70
2019-05-02T00:36:39.229Z,82.70
2019-05-02T00:37:44.519Z,82.67
2019-05-02T00:38:49.792Z,82.60
2019-05-02T00:39:54.836Z,85.42
2019-05-02T00:41:02.166Z,80.70
2019-05-02T00:42:12.909Z,83.12
2019-05-02T00:43:14.408Z,81.72
2019-05-02T00:44:19.394Z,79.00
2019-05-02T00:45:25.961Z,80.38
2019-05-02T00:46:34.988Z,81.57
2019-05-02T00:47:59.032Z,84.55
2019-05-02T00:49:03.484Z,74.22
2019-05-02T00:50:11.259Z,79.55
2019-05-02T00:51:15.623Z,76.72
2019-05-02T00:52:21.184Z,83.72
2019-05-02T00:53:26.236Z,81.08
2019-05-02T00:54:31.268Z,74.47
2019-05-02T00:55:36.722Z,80.45
2019-05-02T00:56:44.233Z,84.90
2019-05-02T00:57:50.859Z,78.52
2019-05-02T00:58:55.451Z,80.38
2019-05-02T01:00:00.743Z,79.40
2019-05-02T01:01:24.384Z,78.05
2019-05-02T01:02:42.513Z,73.28
2019-05-02T01:03:51.995Z,77.42
2019-05-02T01:04:59.346Z,76.47
2019-05-02T01:06:03.039Z,75.20
2019-05-02T01:07:09.121Z,78.45
2019-05-02T01:08:14.095Z,76.97
2019-05-02T01:09:19.371Z,74.72
2019-05-02T01:10:24.376Z,76.42
2019-05-02T01:11:32.207Z,77.40
2019-05-02T01:12:40.070Z,76.62
2019-05-02T01:13:43.110Z,78.85
2019-05-02T01:14:47.803Z,78.55
2019-05-02T01:15:53.064Z,77.55
2019-05-02T01:16:58.094Z,73.05
2019-05-02T01:18:06.192Z,72.72
2019-05-02T01:19:12.193Z,74.95
2019-05-02T01:20:17.108Z,72.10
2019-05-02T01:21:23.161Z,72.70
2019-05-02T01:22:28.803Z,72.42
2019-05-02T01:23:34.042Z,74.22
2019-05-02T01:24:41.524Z,70.12
2019-05-02T01:25:47.242Z,76.40
2019-05-02T01:27:08.262Z,75.28
2019-05-02T01:28:18.869Z,77.12
2019-05-02T01:29:32.518Z,72.12
2019-05-02T01:30:55.145Z,79.22
2019-05-02T01:32:25.185Z,75.40
2019-05-02T01:33:36.836Z,70.30
2019-05-02T01:34:48.946Z,70.80
2019-05-02T01:36:05.697Z,71.30
2019-05-02T01:37:27.745Z,71.47
2019-05-02T01:38:51.616Z,70.72
2019-05-02T01:39:56.992Z,73.28
2019-05-02T01:41:01.686Z,74.00
2019-05-02T01:42:06.421Z,73.30
2019-05-02T01:43:24.106Z,72.20
2019-05-02T01:44:31.188Z,73.40
2019-05-02T01:45:36.593Z,73.75
2019-05-02T01:46:42.165Z,74.72
2019-05-02T01:47:46.878Z,77.82
2019-05-02T01:48:51.868Z,80.03
2019-05-02T01:49:57.165Z,78.40
2019-05-02T01:51:04.363Z,79.92
2019-05-02T01:52:09.806Z,80.15
2019-05-02T01:53:15.115Z,75.92
2019-05-02T01:54:19.797Z,77.82
2019-05-02T01:55:24.501Z,75.50
2019-05-02T01:56:33.230Z,75.70
2019-05-02T01:57:40.025Z,73.92
2019-05-02T01:58:43.182Z,79.40
2019-05-02T01:59:48.457Z,77.72
2019-05-02T02:00:53.710Z,81.67
2019-05-02T02:01:59.166Z,78.50
2019-05-02T02:03:04.259Z,78.28
2019-05-02T02:04:10.675Z,78.90
2019-05-02T02:05:15.652Z,79.15
2019-05-02T02:06:20.617Z,81.60
2019-05-02T02:07:25.632Z,76.45
2019-05-02T02:08:32.584Z,75.25
2019-05-02T02:09:38.801Z,77.15
2019-05-02T02:10:44.214Z,78.10
2019-05-02T02:11:49.786Z,73.22
2019-05-02T02:13:03.410Z,78.05
2019-05-02T02:14:02.051Z,75.45
2019-05-02T02:15:06.944Z,75.90
2019-05-02T02:16:12.221Z,72.20
2019-05-02T02:17:17.354Z,73.60
2019-05-02T02:18:27.748Z,72.40
2019-05-02T02:19:39.109Z,75.10
2019-05-02T02:20:54.553Z,76.33
2019-05-02T02:22:23.574Z,78.87
2019-05-02T02:23:44.972Z,75.35
2019-05-02T02:24:55.938Z,76.10
2019-05-02T02:26:01.911Z,67.12
2019-05-02T02:27:06.676Z,75.50
2019-05-02T02:28:11.396Z,72.92
2019-05-02T02:29:16.368Z,74.20
2019-05-02T02:30:24.594Z,70.72
2019-05-02T02:31:27.564Z,72.40
2019-05-02T02:32:32.625Z,69.35
2019-05-02T02:33:40.906Z,71.30
2019-05-02T02:34:44.096Z,77.15
2019-05-02T02:35:50.485Z,67.90
2019-05-02T02:36:55.480Z,72.25
2019-05-02T02:38:00.459Z,71.67
2019-05-02T02:39:13.389Z,73.33
2019-05-02T02:40:13.349Z,70.22
2019-05-02T02:41:18.909Z,74.92
2019-05-02T02:42:25.057Z,72.17
2019-05-02T02:43:34.989Z,70.75
2019-05-02T02:44:58.832Z,68.62
2019-05-02T02:46:12.538Z,70.28
2019-05-02T02:47:18.874Z,68.87
2019-05-02T02:48:23.475Z,70.42
2019-05-02T02:49:28.899Z,72.87
2019-05-02T02:50:36.894Z,72.12
2019-05-02T02:51:40.541Z,72.03
2019-05-02T02:52:47.104Z,76.37
2019-05-02T02:54:03.036Z,68.40
2019-05-02T02:54:58.561Z,65.17
2019-05-02T02:56:04.319Z,69.92
2019-05-02T02:57:20.109Z,70.60
2019-05-02T02:58:18.305Z,67.35
2019-05-02T02:59:26.164Z,66.85
2019-05-02T03:00:31.127Z,65.25
2019-05-02T03:01:36.411Z,66.35
2019-05-02T03:02:47.647Z,69.92
2019-05-02T03:03:48.296Z,70.90
2019-05-02T03:04:53.460Z,66.85
2019-05-02T03:05:58.652Z,65.35
2019-05-02T03:07:04.919Z,67.75
2019-05-02T03:08:09.914Z,67.60
2019-05-02T03:09:20.159Z,68.85
2019-05-02T03:10:21.299Z,67.55
2019-05-02T03:11:27.697Z,67.03
2019-05-02T03:12:57.736Z,67.65
2019-05-02T03:14:18.680Z,69.07
2019-05-02T03:15:27.927Z,70.12
2019-05-02T03:16:31.957Z,64.37
2019-05-02T03:17:36.970Z,66.28
2019-05-02T03:18:43.385Z,68.65
2019-05-02T03:19:54.216Z,68.62
2019-05-02T03:20:55.789Z,67.92
2019-05-02T03:22:03.746Z,65.40
2019-05-02T03:23:07.585Z,66.77
2019-05-02T03:24:12.059Z,67.17
2019-05-02T03:25:18.413Z,64.75
2019-05-02T03:26:23.516Z,67.92
2019-05-02T03:27:29.977Z,67.42
2019-05-02T03:28:34.980Z,65.42
2019-05-02T03:29:44.120Z,69.17
2019-05-02T03:30:47.259Z,63.60
2019-05-02T03:32:12.256Z,66.75
2019-05-02T03:33:09.769Z,65.62
2019-05-02T03:34:06.261Z,70.52
2019-05-02T03:35:17.936Z,67.78
2019-05-02T03:36:28.521Z,65.80
2019-05-02T03:37:24.820Z,68.92
2019-05-02T03:38:32.619Z,63.73
2019-05-02T03:39:37.282Z,66.20
2019-05-02T03:40:42.828Z,67.25
2019-05-02T03:41:48.090Z,66.72
2019-05-02T03:42:52.934Z,65.57
2019-05-02T03:44:10.763Z,63.98
2019-05-02T03:45:05.570Z,67.30
2019-05-02T03:46:13.554Z,64.35
2019-05-02T03:47:18.123Z,61.85
2019-05-02T03:48:25.598Z,62.75
2019-05-02T03:49:29.665Z,66.47
2019-05-02T03:50:35.373Z,66.72
2019-05-02T03:51:40.649Z,69.07
2019-05-02T03:52:46.468Z,65.17
2019-05-02T03:53:51.365Z,67.92
2019-05-02T03:54:56.387Z,65.52
2019-05-02T03:56:10.605Z,69.55
2019-05-02T03:57:08.757Z,64.97
2019-05-02T03:58:16.844Z,66.87
2019-05-02T03:59:20.873Z,64.25
2019-05-02T04:00:25.847Z,64.40
2019-05-02T04:01:34.855Z,72.22
2019-05-02T04:02:38.373Z,63.70
2019-05-02T04:03:43.802Z,66.65
2019-05-02T04:04:54.488Z,66.92
2019-05-02T04:05:56.486Z,63.65
2019-05-02T04:07:03.288Z,67.80
2019-05-02T04:08:20.042Z,64.12
2019-05-02T04:09:39.221Z,67.03
2019-05-02T04:11:10.972Z,62.33
2019-05-02T04:12:19.317Z,64.15
2019-05-02T04:13:24.012Z,71.87
2019-05-02T04:14:37.921Z,65.65
2019-05-02T04:15:40.229Z,62.15
2019-05-02T04:16:48.587Z,66.25
2019-05-02T04:17:53.808Z,63.78
2019-05-02T04:18:59.578Z,67.55
2019-05-02T04:20:09.657Z,65.52
2019-05-02T04:21:10.941Z,72.37
2019-05-02T04:22:16.392Z,63.05
2019-05-02T04:23:27.887Z,62.70
2019-05-02T04:24:28.525Z,63.35
2019-05-02T04:25:35.350Z,65.87
2019-05-02T04:26:52.615Z,66.15
2019-05-02T04:27:48.467Z,65.20
2019-05-02T04:28:53.763Z,69.67
2019-05-02T04:30:09.975Z,69.42
2019-05-02T04:31:05.082Z,73.17
2019-05-02T04:32:14.089Z,65.62
2019-05-02T04:33:17.030Z,66.00
2019-05-02T04:34:22.007Z,67.72
2019-05-02T04:35:28.797Z,62.17
2019-05-02T04:36:33.688Z,64.58
2019-05-02T04:37:40.956Z,65.62
2019-05-02T04:38:48.758Z,66.12
2019-05-02T04:39:53.729Z,65.22
2019-05-02T04:40:59.735Z,65.80
2019-05-02T04:42:12.940Z,64.20
2019-05-02T04:43:11.790Z,65.37
2019-05-02T04:44:18.979Z,64.25
2019-05-02T04:45:29.250Z,68.02
2019-05-02T04:46:31.180Z,65.85
2019-05-02T04:47:39.049Z,67.58
2019-05-02T04:48:48.606Z,67.50
2019-05-02T04:49:51.970Z,68.83
2019-05-02T04:50:59.413Z,64.85
2019-05-02T04:52:10.470Z,69.00
2019-05-02T04:53:10.035Z,70.45
2019-05-02T04:54:22.016Z,66.75
2019-05-02T04:55:29.220Z,63.78
2019-05-02T04:56:28.951Z,63.02
2019-05-02T04:57:36.731Z,68.15
2019-05-02T04:58:40.958Z,66.55
2019-05-02T04:59:50.035Z,65.17
2019-05-02T05:00:58.072Z,65.72
2019-05-02T05:02:01.555Z,61.10
2019-05-02T05:03:15.199Z,68.22
2019-05-02T05:04:13.133Z,64.37
2019-05-02T05:05:25.429Z,66.42
2019-05-02T05:06:27.576Z,65.45
2019-05-02T05:07:40.960Z,66.70
2019-05-02T05:08:41.826Z,67.75
2019-05-02T05:09:50.064Z,62.43
2019-05-02T05:10:53.880Z,67.82
2019-05-02T05:12:02.538Z,64.03
2019-05-02T05:13:07.622Z,61.85
2019-05-02T05:14:12.324Z,68.97
2019-05-02T05:15:33.908Z,67.80
2019-05-02T05:16:24.009Z,66.92
2019-05-02T05:17:32.472Z,66.80
2019-05-02T05:18:37.872Z,64.15
2019-05-02T05:19:42.929Z,67.25
2019-05-02T05:20:52.958Z,68.85
2019-05-02T05:21:58.837Z,64.65
2019-05-02T05:23:01.666Z,61.65
2019-05-02T05:24:25.530Z,64.15
2019-05-02T05:25:37.850Z,67.62
2019-05-02T05:26:43.857Z,67.75
2019-05-02T05:27:52.775Z,65.57
2019-05-02T05:28:58.381Z,65.85
2019-05-02T05:30:09.313Z,67.67
2019-05-02T05:31:10.288Z,65.35
2019-05-02T05:32:17.833Z,67.40
2019-05-02T05:33:22.798Z,69.12
2019-05-02T05:34:32.274Z,68.83
2019-05-02T05:35:34.238Z,69.53
2019-05-02T05:36:39.311Z,69.50
2019-05-02T05:37:51.214Z,71.37
2019-05-02T05:38:50.999Z,73.33
2019-05-02T05:39:55.687Z,73.65
2019-05-02T05:41:03.081Z,67.85
2019-05-02T05:42:10.379Z,71.15
2019-05-02T05:43:17.985Z,70.78
2019-05-02T05:44:23.375Z,70.45
2019-05-02T05:45:27.974Z,68.00
2019-05-02T05:46:33.297Z,69.95
2019-05-02T05:47:39.743Z,70.40
2019-05-02T05:48:44.473Z,70.92
2019-05-02T05:49:52.414Z,70.57
2019-05-02T05:50:57.882Z,69.15
2019-05-02T05:52:03.957Z,70.67
2019-05-02T05:53:12.480Z,69.65
2019-05-02T05:54:15.486Z,72.72
2019-05-02T05:55:24.004Z,73.78
2019-05-02T05:56:27.934Z,72.92
2019-05-02T05:57:33.458Z,69.87
2019-05-02T05:58:39.901Z,78.30
2019-05-02T05:59:45.444Z,70.60
2019-05-02T06:00:53.919Z,69.72
2019-05-02T06:01:57.953Z,66.85
2019-05-02T06:03:11.545Z,65.85
2019-05-02T06:04:13.944Z,70.05
2019-05-02T06:05:17.481Z,66.65
2019-05-02T06:06:24.439Z,66.82
2019-05-02T06:07:33.659Z,67.50
2019-05-02T06:08:36.503Z,69.72
2019-05-02T06:09:41.471Z,66.77
2019-05-02T06:10:46.456Z,71.85
2019-05-02T06:11:55.488Z,67.12
2019-05-02T06:12:57.632Z,67.67
2019-05-02T06:14:02.586Z,69.35
2019-05-02T06:15:07.341Z,66.20
2019-05-02T06:16:15.044Z,69.97
2019-05-02T06:17:23.007Z,73.87
2019-05-02T06:18:28.268Z,68.65
2019-05-02T06:19:32.898Z,71.30
2019-05-02T06:20:38.154Z,75.17
2019-05-02T06:21:45.066Z,73.57
2019-05-02T06:22:55.082Z,72.35
2019-05-02T06:23:58.343Z,69.62
2019-05-02T06:25:09.127Z,72.40
2019-05-02T06:26:15.436Z,70.50
2019-05-02T06:27:20.933Z,72.17
2019-05-02T06:28:27.594Z,71.28
2019-05-02T06:29:32.538Z,73.07
2019-05-02T06:30:37.235Z,75.57
2019-05-02T06:31:43.142Z,71.00
2019-05-02T06:32:50.066Z,74.82
2019-05-02T06:33:56.368Z,73.87
2019-05-02T06:35:00.823Z,74.90
2019-05-02T06:36:05.513Z,74.75
2019-05-02T06:37:13.670Z,75.67
2019-05-02T06:38:21.531Z,73.80
2019-05-02T06:39:27.017Z,71.28
2019-05-02T06:40:30.098Z,72.78
2019-05-02T06:41:34.776Z,75.37
2019-05-02T06:42:39.773Z,73.80
2019-05-02T06:43:46.645Z,73.25
2019-05-02T06:54:46.158Z,68.10
2019-05-02T06:55:51.437Z,63.58
2019-05-02T06:56:56.780Z,67.05
2019-05-02T06:58:03.578Z,59.98
2019-05-02T06:59:13.135Z,49.93
2019-05-02T07:00:15.744Z,49.18
2019-05-02T07:01:21.625Z,61.20
2019-05-02T07:02:28.271Z,65.67
2019-05-02T07:03:34.699Z,68.25
2019-05-02T07:04:39.706Z,69.20
2019-05-02T07:05:45.113Z,69.17
2019-05-02T07:06:58.780Z,71.87
2019-05-02T07:07:56.576Z,65.45
2019-05-02T07:09:02.104Z,63.92
2019-05-02T07:10:07.553Z,60.98
2019-05-02T07:11:12.275Z,57.43
2019-05-02T07:12:17.269Z,52.23
2019-05-02T07:13:22.548Z,62.85
2019-05-02T07:14:28.067Z,59.60
2019-05-02T07:15:58.019Z,61.68
2019-05-02T07:17:20.753Z,57.85
2019-05-02T07:18:26.009Z,54.30
2019-05-02T07:19:37.038Z,50.12
2019-05-02T07:20:42.515Z,52.85
2019-05-02T07:21:47.889Z,50.38
2019-05-02T07:22:53.110Z,52.75
2019-05-02T07:23:57.892Z,56.70
2019-05-02T07:25:06.982Z,62.35
2019-05-02T07:26:09.746Z,59.10
2019-05-02T07:27:15.599Z,55.65
2019-05-02T07:28:23.703Z,56.45
2019-05-02T07:29:27.470Z,55.20
2019-05-02T07:30:35.067Z,57.98
2019-05-02T07:31:42.938Z,56.08
2019-05-02T07:32:46.242Z,56.37
2019-05-02T07:33:50.976Z,56.77
2019-05-02T07:34:55.919Z,60.92
2019-05-02T07:36:01.423Z,53.00
2019-05-02T07:37:08.461Z,56.30
2019-05-02T07:38:12.348Z,67.75
2019-05-02T07:39:17.315Z,58.38
2019-05-02T07:40:22.579Z,63.58
2019-05-02T07:41:28.943Z,58.60
2019-05-02T07:42:36.817Z,59.90
2019-05-02T07:43:41.564Z,58.78
2019-05-02T07:44:46.343Z,59.60
2019-05-02T07:45:51.596Z,62.70
2019-05-02T07:47:02.225Z,59.53
2019-05-02T07:48:03.252Z,74.47
2019-05-02T07:49:08.200Z,67.60
2019-05-02T07:50:12.739Z,66.60
2019-05-02T07:51:21.288Z,74.70
2019-05-02T07:52:24.134Z,71.80
2019-05-02T07:53:29.115Z,72.25
2019-05-02T07:54:34.095Z,78.60
2019-05-02T07:55:40.829Z,81.85
2019-05-02T07:56:48.631Z,79.47
2019-05-02T07:57:51.989Z,79.12
2019-05-02T07:58:56.667Z,73.95
2019-05-02T08:00:02.696Z,79.07
2019-05-02T08:01:08.068Z,84.95
2019-05-02T08:02:13.861Z,77.30
2019-05-02T08:03:18.590Z,75.55
2019-05-02T08:04:23.328Z,76.65
2019-05-02T08:05:28.028Z,80.20
2019-05-02T08:06:35.289Z,78.17
2019-05-02T08:07:39.733Z,70.90
2019-05-02T08:08:44.699Z,77.35
2019-05-02T08:09:49.212Z,84.35
2019-05-02T08:11:01.345Z,75.25
2019-05-02T08:12:01.013Z,68.75
2019-05-02T08:13:05.701Z,74.00
2019-05-02T08:14:10.649Z,78.85
2019-05-02T08:15:15.403Z,73.05
2019-05-02T08:16:22.367Z,72.30
2019-05-02T08:17:27.138Z,74.37
2019-05-02T08:18:31.910Z,70.52
2019-05-02T08:19:37.541Z,72.85
2019-05-02T08:20:42.803Z,69.25
2019-05-02T08:21:47.906Z,62.78
2019-05-02T08:22:52.597Z,74.53
2019-05-02T08:24:02.197Z,74.10
2019-05-02T08:25:04.000Z,68.95
2019-05-02T08:26:09.279Z,69.97
2019-05-02T08:27:39.227Z,66.45
2019-05-02T08:28:54.801Z,65.55
2019-05-02T08:30:00.101Z,64.55
2019-05-02T08:31:05.971Z,69.95
2019-05-02T08:32:10.731Z,69.03
2019-05-02T08:33:15.490Z,66.53
2019-05-02T08:34:29.577Z,66.07
2019-05-02T08:35:34.279Z,68.85
2019-05-02T08:36:39.328Z,66.62
2019-05-02T08:37:44.046Z,69.22
2019-05-02T08:38:53.067Z,69.47
2019-05-02T08:39:55.515Z,69.10
2019-05-02T08:41:00.250Z,66.40
2019-05-02T08:42:05.389Z,67.10
2019-05-02T08:43:11.031Z,68.87
2019-05-02T08:44:16.998Z,65.17
2019-05-02T08:45:22.891Z,64.62
2019-05-02T08:46:27.874Z,65.40
2019-05-02T08:47:32.674Z,67.50
2019-05-02T08:48:41.877Z,67.05
2019-05-02T08:49:43.815Z,66.50
2019-05-02T08:50:49.098Z,65.67
2019-05-02T08:51:53.614Z,64.00
2019-05-02T08:52:58.879Z,59.83
2019-05-02T08:54:03.873Z,62.15
2019-05-02T08:55:09.721Z,64.15
2019-05-02T08:56:21.300Z,59.50
2019-05-02T08:57:23.857Z,65.15
2019-05-02T08:58:29.256Z,62.65
2019-05-02T08:59:34.244Z,61.13
2019-05-02T09:00:39.567Z,62.90
2019-05-02T09:01:49.409Z,62.33
2019-05-02T09:02:51.211Z,61.77
2019-05-02T09:03:57.035Z,62.53
2019-05-02T09:05:04.585Z,60.15
2019-05-02T09:06:09.304Z,63.35
2019-05-02T09:07:14.317Z,61.98
2019-05-02T09:08:19.354Z,58.78
2019-05-02T09:09:28.180Z,56.92
2019-05-02T09:10:37.194Z,61.42
2019-05-02T09:11:41.516Z,60.38
2019-05-02T09:12:46.236Z,62.78
2019-05-02T09:13:52.630Z,62.85
2019-05-02T09:14:57.624Z,61.85
2019-05-02T09:16:05.580Z,61.05
2019-05-02T09:17:15.710Z,62.65
2019-05-02T09:18:15.791Z,60.78
2019-05-02T09:19:25.159Z,63.70
2019-05-02T09:20:27.242Z,65.17
2019-05-02T09:21:35.976Z,64.12
2019-05-02T09:22:39.205Z,61.90
2019-05-02T09:23:44.077Z,67.10
2019-05-02T09:24:49.054Z,61.77
2019-05-02T09:25:53.561Z,61.98
2019-05-02T09:26:58.793Z,64.32
2019-05-02T09:28:03.793Z,64.53
2019-05-02T09:29:09.113Z,63.90
2019-05-02T09:30:17.062Z,61.13
2019-05-02T09:31:22.670Z,64.75
2019-05-02T09:32:27.445Z,61.98
2019-05-02T09:33:32.333Z,63.60
2019-05-02T09:34:37.026Z,59.58
2019-05-02T09:35:42.308Z,58.35
2019-05-02T09:36:47.275Z,56.00
2019-05-02T09:37:52.339Z,61.20
2019-05-02T09:38:57.721Z,54.75
2019-05-02T09:40:06.881Z,54.53
2019-05-02T09:41:16.934Z,56.40
2019-05-02T09:42:18.846Z,51.88
2019-05-02T09:43:22.874Z,56.15
2019-05-02T09:44:28.452Z,52.58
2019-05-02T09:45:37.363Z,58.38
2019-05-02T09:46:42.720Z,55.15
2019-05-02T09:47:56.715Z,57.00
2019-05-02T09:48:57.059Z,53.80
2019-05-02T09:50:12.867Z,52.58
2019-05-02T09:51:18.194Z,56.25
2019-05-02T09:52:22.952Z,61.02
2019-05-02T09:53:27.935Z,55.70
2019-05-02T09:54:36.949Z,53.87
2019-05-02T09:55:42.030Z,63.80
2019-05-02T09:56:46.032Z,55.50
2019-05-02T09:57:51.929Z,53.58
2019-05-02T09:59:04.806Z,52.20
2019-05-02T10:00:03.914Z,53.85
2019-05-02T10:01:22.378Z,60.10
2019-05-02T10:02:27.068Z,56.50
2019-05-02T10:03:32.049Z,58.30
2019-05-02T10:04:36.795Z,54.05
2019-05-02T10:05:43.055Z,52.85
2019-05-02T10:06:48.451Z,55.48
2019-05-02T10:07:57.602Z,52.33
2019-05-02T10:09:02.641Z,52.45
2019-05-02T10:10:07.323Z,56.28
2019-05-02T10:11:16.978Z,52.65
2019-05-02T10:12:19.046Z,52.20
2019-05-02T10:13:24.326Z,53.45
2019-05-02T10:14:29.125Z,54.98
2019-05-02T10:15:33.838Z,50.80
2019-05-02T10:16:38.860Z,52.30
2019-05-02T10:17:46.767Z,50.70
2019-05-02T10:18:52.332Z,46.92
2019-05-02T10:19:57.687Z,51.05
2019-05-02T10:21:07.849Z,51.13
2019-05-02T10:22:12.261Z,52.65
2019-05-02T10:23:19.698Z,52.08
2019-05-02T10:24:24.445Z,46.33
2019-05-02T10:25:32.821Z,47.62
2019-05-02T10:26:36.287Z,46.08
2019-05-02T10:27:43.860Z,48.60
2019-05-02T10:28:50.487Z,48.28
2019-05-02T10:29:57.176Z,45.38
2019-05-02T10:31:02.246Z,48.87
2019-05-02T10:32:07.625Z,48.58
2019-05-02T10:33:13.520Z,44.63
2019-05-02T10:34:19.150Z,45.05
2019-05-02T10:35:28.054Z,46.53
2019-05-02T10:36:33.862Z,44.45
2019-05-02T10:37:39.652Z,46.92
2019-05-02T10:38:48.746Z,46.08
2019-05-02T10:39:52.213Z,44.42
2019-05-02T10:41:01.795Z,44.03
2019-05-02T10:42:04.747Z,43.05
2019-05-02T10:43:11.529Z,41.77
2019-05-02T10:44:16.165Z,45.70
2019-05-02T10:45:22.536Z,43.17
2019-05-02T10:46:44.005Z,45.25
2019-05-02T10:47:48.698Z,44.18
2019-05-02T10:48:59.572Z,43.50
2019-05-02T10:50:11.676Z,47.35
2019-05-02T10:51:35.341Z,46.55
2019-05-02T10:52:42.401Z,45.88
2019-05-02T10:53:52.038Z,43.90
2019-05-02T10:54:53.677Z,50.28
2019-05-02T10:55:58.663Z,45.48
2019-05-02T10:57:03.357Z,43.52
2019-05-02T10:58:08.343Z,44.33
2019-05-02T10:59:13.578Z,42.98
2019-05-02T11:00:22.007Z,44.60
2019-05-02T11:01:26.942Z,45.52
2019-05-02T11:02:49.079Z,42.27
2019-05-02T11:03:54.879Z,42.25
2019-05-02T11:05:02.772Z,41.53
2019-05-02T11:06:07.965Z,45.58
2019-05-02T11:07:17.130Z,43.17
2019-05-02T11:08:22.324Z,41.13
2019-05-02T11:09:26.613Z,44.03
2019-05-02T11:10:32.343Z,39.83
2019-05-02T11:11:37.331Z,38.17
2019-05-02T11:12:47.410Z,39.50
2019-05-02T11:14:13.567Z,40.58
2019-05-02T11:15:49.055Z,43.05
2019-05-02T11:17:08.749Z,36.85
2019-05-02T11:18:12.647Z,36.17
2019-05-02T11:19:23.284Z,38.23
2019-05-02T11:20:28.339Z,38.30
2019-05-02T11:21:33.336Z,40.92
2019-05-02T11:22:38.074Z,38.17
2019-05-02T11:23:43.087Z,40.63
2019-05-02T11:24:48.418Z,37.38
2019-05-02T11:25:53.443Z,39.98
2019-05-02T11:26:58.434Z,41.92
2019-05-02T11:28:07.064Z,35.48
2019-05-02T11:29:09.594Z,36.73
2019-05-02T11:30:16.900Z,40.40
2019-05-02T11:31:21.942Z,38.80
2019-05-02T11:32:26.446Z,36.95
2019-05-02T11:33:32.525Z,40.38
2019-05-02T11:34:37.667Z,43.10
2019-05-02T11:35:48.901Z,41.53
2019-05-02T11:36:49.392Z,43.52
2019-05-02T11:37:54.674Z,42.15
2019-05-02T11:39:09.301Z,41.02
2019-05-02T11:40:07.749Z,44.35
2019-05-02T11:41:13.275Z,40.15
2019-05-02T11:42:23.208Z,37.70
2019-05-02T11:43:24.993Z,40.38
2019-05-02T11:44:30.015Z,40.55
2019-05-02T11:45:35.054Z,41.35
2019-05-02T11:46:43.083Z,43.05
2019-05-02T11:47:46.872Z,40.12
2019-05-02T11:48:56.379Z,40.90
2019-05-02T11:49:58.440Z,36.58
2019-05-02T11:51:07.339Z,39.18
2019-05-02T11:52:11.746Z,42.27
2019-05-02T11:53:28.948Z,40.35
2019-05-02T11:54:24.143Z,39.48
2019-05-02T11:55:29.240Z,40.70
2019-05-02T11:56:33.951Z,41.83
2019-05-02T11:57:38.656Z,39.48
2019-05-02T11:58:48.085Z,39.92
2019-05-02T11:59:52.068Z,39.30
2019-05-02T12:00:57.357Z,36.88
2019-05-02T12:02:17.540Z,40.40
2019-05-02T12:03:28.104Z,43.23
2019-05-02T12:04:33.930Z,39.78
2019-05-02T12:05:42.004Z,42.50
2019-05-02T12:06:49.911Z,43.65
2019-05-02T12:07:55.357Z,44.10
2019-05-02T12:09:01.914Z,46.55
2019-05-02T12:10:06.791Z,46.50
2019-05-02T12:11:16.412Z,44.33
2019-05-02T12:12:18.209Z,46.40
2019-05-02T12:13:25.231Z,41.70
2019-05-02T12:14:32.776Z,44.20
2019-05-02T12:15:37.039Z,42.10
2019-05-02T12:16:43.106Z,40.92
2019-05-02T12:17:48.389Z,38.33
2019-05-02T12:18:57.993Z,38.40
2019-05-02T12:20:02.059Z,38.05
2019-05-02T12:21:06.392Z,42.43
2019-05-02T12:22:12.776Z,37.08
2019-05-02T12:23:17.734Z,35.70
2019-05-02T12:24:22.737Z,37.20
2019-05-02T12:25:28.230Z,36.25
2019-05-02T12:26:33.337Z,36.30
2019-05-02T12:27:38.035Z,36.50
2019-05-02T12:28:42.963Z,36.85
2019-05-02T12:29:50.198Z,39.20
2019-05-02T12:30:54.417Z,39.40
2019-05-02T12:31:59.977Z,41.58
2019-05-02T12:33:04.707Z,42.13
2019-05-02T12:34:09.178Z,38.15
2019-05-02T12:35:14.537Z,36.58
2019-05-02T12:36:19.813Z,35.83
2019-05-02T12:37:24.819Z,35.70
2019-05-02T12:38:29.867Z,33.02
2019-05-02T12:39:34.315Z,32.65
2019-05-02T12:40:39.154Z,35.90
2019-05-02T12:41:44.231Z,34.75
2019-05-02T12:42:49.303Z,34.27
2019-05-02T12:43:54.540Z,34.03
2019-05-02T12:44:59.239Z,34.38
2019-05-02T12:46:03.931Z,33.70
2019-05-02T12:47:09.029Z,33.92
2019-05-02T12:48:13.781Z,34.27
2019-05-02T12:49:27.002Z,33.33
2019-05-02T12:50:26.296Z,40.08
2019-05-02T12:51:33.288Z,35.43
2019-05-02T12:52:38.280Z,33.92
2019-05-02T13:16:18.883Z,32.85
2019-05-02T13:17:23.349Z,31.75
2019-05-02T13:18:34.618Z,30.70
2019-05-02T13:19:40.772Z,35.13
2019-05-02T13:20:43.276Z,37.25
2019-05-02T13:21:59.433Z,34.18
2019-05-02T13:23:34.142Z,30.77
2019-05-02T13:24:54.118Z,31.00
2019-05-02T13:25:57.223Z,31.17
2019-05-02T13:27:04.336Z,30.23
2019-05-02T13:28:08.844Z,30.25
2019-05-02T13:29:13.821Z,25.00
2019-05-02T13:30:32.866Z,29.70
2019-05-02T13:31:45.088Z,26.12
2019-05-02T13:32:56.202Z,24.87
2019-05-02T13:34:06.457Z,24.67
2019-05-02T13:35:37.607Z,24.90
2019-05-02T13:36:45.267Z,19.80
2019-05-02T13:37:56.276Z,23.25
2019-05-02T13:39:01.776Z,25.97
2019-05-02T13:40:32.260Z,24.60
2019-05-02T13:41:36.753Z,23.05
2019-05-02T13:42:42.037Z,24.32
2019-05-02T13:43:48.438Z,26.45
2019-05-02T13:45:02.417Z,26.23
2019-05-02T13:46:22.036Z,30.60
2019-05-02T13:47:26.537Z,32.50
2019-05-02T13:48:32.340Z,32.15
2019-05-02T13:49:50.140Z,30.25
2019-05-02T13:50:43.978Z,29.52
2019-05-02T13:51:48.995Z,26.60
2019-05-02T13:52:57.932Z,26.87
2019-05-02T13:54:02.267Z,25.17
2019-05-02T13:55:08.063Z,24.95
2019-05-02T13:56:46.773Z,27.73
2019-05-02T13:57:52.995Z,31.23
2019-05-02T13:58:58.094Z,26.17
2019-05-02T14:00:02.794Z,34.50
2019-05-02T14:01:07.240Z,34.65
2019-05-02T14:02:31.832Z,27.32
2019-05-02T14:03:36.866Z,25.40
2019-05-02T14:04:41.872Z,29.48
2019-05-02T14:05:51.156Z,27.50
2019-05-02T14:06:54.853Z,27.65
2019-05-02T14:08:35.451Z,27.67
2019-05-02T14:09:44.010Z,27.82
2019-05-02T14:10:52.692Z,32.00
2019-05-02T14:12:22.380Z,34.00
2019-05-02T14:13:27.056Z,28.77
2019-05-02T14:14:32.701Z,31.25
2019-05-02T14:15:39.223Z,31.05
2019-05-02T14:16:43.962Z,36.10
2019-05-02T14:17:49.224Z,30.82
2019-05-02T14:18:54.211Z,31.05
2019-05-02T14:20:08.534Z,29.30
2019-05-02T14:21:05.838Z,31.07
2019-05-02T14:22:12.880Z,30.82
2019-05-02T14:23:17.417Z,33.67
2019-05-02T14:24:23.174Z,30.15
2019-05-02T14:25:28.116Z,31.73
2019-05-02T14:26:33.205Z,33.13
2019-05-02T14:27:38.016Z,35.98
2019-05-02T14:28:43.385Z,37.60
2019-05-02T14:29:48.405Z,40.45
2019-05-02T14:30:53.176Z,38.25
2019-05-02T14:31:58.142Z,39.90
2019-05-02T14:33:06.582Z,35.83
2019-05-02T14:34:29.659Z,35.10
2019-05-02T14:35:36.729Z,37.42
2019-05-02T14:36:42.300Z,39.67
2019-05-02T14:37:53.018Z,46.13
2019-05-02T14:38:58.163Z,38.92
2019-05-02T14:40:09.191Z,41.00
2019-05-02T14:41:17.007Z,40.58
2019-05-02T14:42:25.966Z,42.85
2019-05-02T14:43:48.101Z,44.77
2019-05-02T14:45:07.276Z,44.77
2019-05-02T14:45:59.427Z,41.37
2019-05-02T14:47:04.144Z,45.33
2019-05-02T14:48:18.519Z,43.60
2019-05-02T14:49:16.596Z,44.05
2019-05-02T14:50:26.353Z,45.03
2019-05-02T14:51:29.085Z,46.08
2019-05-02T14:52:37.169Z,44.80
2019-05-02T14:53:42.844Z,46.70
2019-05-02T14:54:48.027Z,50.20
2019-05-02T14:55:57.618Z,44.10